Página principal
METAR-TAF:

METAR-TAF

Aeroportos :

Aeroporto Internacional de Volgogrado

Volgogrado, Rússia

latitude: 48-47N, longitude: 044-22E, altura: 145 m

Observação actual do tempo

O boletim foi feito há 39 minutos, às 07:30 UTC
Vento 21 kt de sudeste
Temperatura 19°C
Humidade 26%
Pressão 1023 hPa
Visibilidade 10 km ou mais
sem nuvens abaixo de 1500 metros e sem cumulonimbus

METAR: URWW 300730Z 13011MPS CAVOK 19/M01 Q1023 R06/010070 NOSIG

Hora: 12:09 (08:09 UTC)

Previsão

O boletim foi feito há 3 horas e 9 minutos, às 05:00 UTC
Previsão válida de 30 às 06 UTC a 30 às 15 UTC
Vento 17 kt de este com rajadas de 27 kt
Visibilidade 10 km ou mais
Nuvens dispersasa uma altura de 4000 ft
Temporariamente
de 30 às 06 UTC a 30 às 15 UTC
Vento 23 kt de sudeste com rajadas de 35 kt

TAF: URWW 300500Z 3006/3015 10009G14MPS 9999 SCT040 TEMPO 3006/3015 13012G18MPS

Observações e previsões do tempo de mais de 4000 aeroportos (mensagens METAR e TAF).

As estações disponíveis são os pontos amarelos e vermelhos sobre o mapa.

Mova o rato sobre o mapa para ver o nome da estação.

Depois clique no ponto para visualizar as observações e previsões meteorológicas.

Para alterar o mapa : clique nos botões verdes com uma cruz preta para aumentar o zoom; no botão verde com uma pitada de zoom; ou nas setas verdes para mapas adjacentes.


METAR-TAF: